Cheshire, Oregon
Current Conditions -  °F | °C
As of 7:54 AM on Friday 21 Nov 2014 (Local Time) from KEUG Reporting Station
Overcast Overcast  
Wind Chill:   Ceiling: 3900
Heat Index:   Visibility: 10mi
Dew Point:   Wind: 10mph
Humidity: 83%   Direction: 170°S
Pressure: 29.87"   Gusts: NA
Location:  44.19°N, 123.29°W
Report Text: KEUG 211554Z 17009KT 10SM OVC039 09/07 A2987 RMK AO2 SLP114 T00940067 $
Loading
Personal Weather Stations






























Interactive Weather Map New forecast layout! Learn more

10-Day Weather Forecast

Advertisements
Track Severe Weather on mobile